sensor_id;sensor_type;location;lat;lon;timestamp;P1;durP1;ratioP1;P2;durP2;ratioP2
24279;SDS011;12395;42.808;23.408;2023-07-31T00:00:55;7.90;;;4.57;;
24279;SDS011;12395;42.808;23.408;2023-07-31T00:03:20;7.18;;;4.80;;
24279;SDS011;12395;42.808;23.408;2023-07-31T00:05:46;6.75;;;4.53;;
24279;SDS011;12395;42.808;23.408;2023-07-31T00:08:11;7.40;;;4.80;;
24279;SDS011;12395;42.808;23.408;2023-07-31T00:10:36;6.13;;;4.55;;
24279;SDS011;12395;42.808;23.408;2023-07-31T00:13:02;7.38;;;4.15;;
24279;SDS011;12395;42.808;23.408;2023-07-31T00:15:27;8.60;;;5.15;;
24279;SDS011;12395;42.808;23.408;2023-07-31T00:17:53;7.40;;;5.05;;
24279;SDS011;12395;42.808;23.408;2023-07-31T00:20:18;8.05;;;5.03;;
24279;SDS011;12395;42.808;23.408;2023-07-31T00:22:43;8.52;;;5.40;;
24279;SDS011;12395;42.808;23.408;2023-07-31T00:25:09;7.45;;;4.68;;
24279;SDS011;12395;42.808;23.408;2023-07-31T00:27:34;7.95;;;4.97;;
24279;SDS011;12395;42.808;23.408;2023-07-31T00:29:59;7.50;;;4.88;;
24279;SDS011;12395;42.808;23.408;2023-07-31T00:32:25;7.75;;;4.95;;
24279;SDS011;12395;42.808;23.408;2023-07-31T00:34:50;8.13;;;5.10;;
24279;SDS011;12395;42.808;23.408;2023-07-31T00:37:16;8.55;;;4.88;;
24279;SDS011;12395;42.808;23.408;2023-07-31T00:39:41;8.80;;;5.45;;
24279;SDS011;12395;42.808;23.408;2023-07-31T00:42:07;8.18;;;5.20;;
24279;SDS011;12395;42.808;23.408;2023-07-31T00:44:32;7.68;;;5.22;;
24279;SDS011;12395;42.808;23.408;2023-07-31T00:46:58;8.80;;;5.15;;
24279;SDS011;12395;42.808;23.408;2023-07-31T00:49:24;8.13;;;5.18;;
24279;SDS011;12395;42.808;23.408;2023-07-31T00:51:50;7.32;;;4.80;;
24279;SDS011;12395;42.808;23.408;2023-07-31T00:54:15;10.50;;;5.10;;
24279;SDS011;12395;42.808;23.408;2023-07-31T00:56:41;9.00;;;5.35;;
24279;SDS011;12395;42.808;23.408;2023-07-31T00:59:09;8.02;;;5.07;;
24279;SDS011;12395;42.808;23.408;2023-07-31T01:01:34;8.15;;;4.75;;
24279;SDS011;12395;42.808;23.408;2023-07-31T01:04:00;8.10;;;5.28;;
24279;SDS011;12395;42.808;23.408;2023-07-31T01:11:53;7.97;;;5.45;;
24279;SDS011;12395;42.808;23.408;2023-07-31T01:14:21;7.80;;;5.35;;
24279;SDS011;12395;42.808;23.408;2023-07-31T01:16:47;9.63;;;5.70;;
24279;SDS011;12395;42.808;23.408;2023-07-31T01:19:13;10.55;;;5.68;;
24279;SDS011;12395;42.808;23.408;2023-07-31T01:21:56;9.10;;;6.38;;
24279;SDS011;12395;42.808;23.408;2023-07-31T01:27:09;9.30;;;5.82;;
24279;SDS011;12395;42.808;23.408;2023-07-31T01:36:06;9.73;;;6.10;;
24279;SDS011;12395;42.808;23.408;2023-07-31T01:38:32;10.40;;;5.80;;
24279;SDS011;12395;42.808;23.408;2023-07-31T01:40:58;10.48;;;5.45;;
24279;SDS011;12395;42.808;23.408;2023-07-31T01:43:23;10.00;;;6.55;;
24279;SDS011;12395;42.808;23.408;2023-07-31T01:45:49;9.98;;;5.70;;
24279;SDS011;12395;42.808;23.408;2023-07-31T01:48:14;9.50;;;6.35;;
24279;SDS011;12395;42.808;23.408;2023-07-31T01:50:40;10.98;;;6.40;;
24279;SDS011;12395;42.808;23.408;2023-07-31T01:53:05;10.80;;;6.30;;
24279;SDS011;12395;42.808;23.408;2023-07-31T01:55:31;9.93;;;6.32;;
24279;SDS011;12395;42.808;23.408;2023-07-31T01:57:56;9.55;;;6.13;;
24279;SDS011;12395;42.808;23.408;2023-07-31T02:00:22;9.65;;;6.43;;
24279;SDS011;12395;42.808;23.408;2023-07-31T02:02:47;9.88;;;6.13;;
24279;SDS011;12395;42.808;23.408;2023-07-31T02:05:12;9.30;;;5.90;;
24279;SDS011;12395;42.808;23.408;2023-07-31T02:07:38;9.68;;;6.20;;
24279;SDS011;12395;42.808;23.408;2023-07-31T02:10:03;9.57;;;5.90;;
24279;SDS011;12395;42.808;23.408;2023-07-31T02:12:29;8.68;;;6.40;;
24279;SDS011;12395;42.808;23.408;2023-07-31T02:14:58;12.23;;;7.13;;
24279;SDS011;12395;42.808;23.408;2023-07-31T02:17:24;10.88;;;7.20;;
24279;SDS011;12395;42.808;23.408;2023-07-31T02:19:49;10.32;;;6.70;;
24279;SDS011;12395;42.808;23.408;2023-07-31T02:22:14;9.52;;;6.38;;
24279;SDS011;12395;42.808;23.408;2023-07-31T02:24:40;12.23;;;7.50;;
24279;SDS011;12395;42.808;23.408;2023-07-31T02:27:05;12.30;;;7.55;;
24279;SDS011;12395;42.808;23.408;2023-07-31T02:29:31;10.13;;;6.70;;
24279;SDS011;12395;42.808;23.408;2023-07-31T02:31:56;12.45;;;7.65;;
24279;SDS011;12395;42.808;23.408;2023-07-31T02:34:22;11.57;;;7.88;;
24279;SDS011;12395;42.808;23.408;2023-07-31T02:36:47;11.63;;;7.78;;
24279;SDS011;12395;42.808;23.408;2023-07-31T02:39:12;10.98;;;7.68;;
24279;SDS011;12395;42.808;23.408;2023-07-31T02:41:38;13.05;;;8.25;;
24279;SDS011;12395;42.808;23.408;2023-07-31T02:44:03;11.82;;;7.43;;
24279;SDS011;12395;42.808;23.408;2023-07-31T02:46:29;10.48;;;7.00;;
24279;SDS011;12395;42.808;23.408;2023-07-31T02:48:54;11.10;;;7.47;;
24279;SDS011;12395;42.808;23.408;2023-07-31T02:51:20;11.95;;;8.00;;
24279;SDS011;12395;42.808;23.408;2023-07-31T02:53:46;10.65;;;7.50;;
24279;SDS011;12395;42.808;23.408;2023-07-31T02:56:12;11.43;;;7.90;;
24279;SDS011;12395;42.808;23.408;2023-07-31T02:58:38;13.70;;;8.35;;
24279;SDS011;12395;42.808;23.408;2023-07-31T03:01:04;11.15;;;7.68;;
24279;SDS011;12395;42.808;23.408;2023-07-31T03:03:29;12.15;;;7.90;;
24279;SDS011;12395;42.808;23.408;2023-07-31T03:05:54;12.38;;;7.70;;
24279;SDS011;12395;42.808;23.408;2023-07-31T03:08:20;11.25;;;7.47;;
24279;SDS011;12395;42.808;23.408;2023-07-31T03:10:46;12.02;;;7.35;;
24279;SDS011;12395;42.808;23.408;2023-07-31T03:13:11;12.50;;;7.82;;
24279;SDS011;12395;42.808;23.408;2023-07-31T03:15:36;10.95;;;7.53;;
24279;SDS011;12395;42.808;23.408;2023-07-31T03:18:02;11.93;;;7.65;;
24279;SDS011;12395;42.808;23.408;2023-07-31T03:20:27;14.05;;;7.57;;
24279;SDS011;12395;42.808;23.408;2023-07-31T03:22:53;12.02;;;7.88;;
24279;SDS011;12395;42.808;23.408;2023-07-31T03:25:18;12.23;;;7.75;;
24279;SDS011;12395;42.808;23.408;2023-07-31T03:27:43;12.82;;;8.07;;
24279;SDS011;12395;42.808;23.408;2023-07-31T03:30:09;13.23;;;8.27;;
24279;SDS011;12395;42.808;23.408;2023-07-31T03:32:34;13.95;;;8.25;;
24279;SDS011;12395;42.808;23.408;2023-07-31T03:35:00;12.85;;;7.97;;
24279;SDS011;12395;42.808;23.408;2023-07-31T03:37:25;11.13;;;8.10;;
24279;SDS011;12395;42.808;23.408;2023-07-31T03:39:51;11.82;;;7.68;;
24279;SDS011;12395;42.808;23.408;2023-07-31T03:42:16;12.38;;;8.68;;
24279;SDS011;12395;42.808;23.408;2023-07-31T03:44:42;12.52;;;8.35;;
24279;SDS011;12395;42.808;23.408;2023-07-31T03:47:07;14.63;;;9.20;;
24279;SDS011;12395;42.808;23.408;2023-07-31T03:49:33;13.02;;;8.65;;
24279;SDS011;12395;42.808;23.408;2023-07-31T03:51:58;13.30;;;9.18;;
24279;SDS011;12395;42.808;23.408;2023-07-31T03:54:24;12.23;;;9.07;;
24279;SDS011;12395;42.808;23.408;2023-07-31T03:56:50;13.05;;;9.60;;
24279;SDS011;12395;42.808;23.408;2023-07-31T03:59:16;14.70;;;9.82;;
24279;SDS011;12395;42.808;23.408;2023-07-31T04:01:41;13.70;;;9.88;;
24279;SDS011;12395;42.808;23.408;2023-07-31T04:04:06;13.88;;;9.73;;
24279;SDS011;12395;42.808;23.408;2023-07-31T04:06:32;12.63;;;8.80;;
24279;SDS011;12395;42.808;23.408;2023-07-31T04:08:57;12.35;;;8.35;;
24279;SDS011;12395;42.808;23.408;2023-07-31T04:11:23;12.93;;;8.27;;
24279;SDS011;12395;42.808;23.408;2023-07-31T04:13:48;11.85;;;7.93;;
24279;SDS011;12395;42.808;23.408;2023-07-31T04:16:14;11.23;;;8.25;;
24279;SDS011;12395;42.808;23.408;2023-07-31T04:18:39;11.27;;;8.05;;
24279;SDS011;12395;42.808;23.408;2023-07-31T04:21:04;14.73;;;8.65;;
24279;SDS011;12395;42.808;23.408;2023-07-31T04:23:30;12.27;;;8.32;;
24279;SDS011;12395;42.808;23.408;2023-07-31T04:25:55;12.82;;;8.38;;
24279;SDS011;12395;42.808;23.408;2023-07-31T04:28:21;12.35;;;8.32;;
24279;SDS011;12395;42.808;23.408;2023-07-31T04:30:46;13.07;;;8.57;;
24279;SDS011;12395;42.808;23.408;2023-07-31T04:33:12;13.18;;;9.15;;
24279;SDS011;12395;42.808;23.408;2023-07-31T04:35:37;12.23;;;8.73;;
24279;SDS011;12395;42.808;23.408;2023-07-31T04:38:02;15.20;;;8.30;;
24279;SDS011;12395;42.808;23.408;2023-07-31T04:40:28;12.43;;;8.25;;
24279;SDS011;12395;42.808;23.408;2023-07-31T04:42:53;14.05;;;8.65;;
24279;SDS011;12395;42.808;23.408;2023-07-31T04:45:19;13.45;;;8.68;;
24279;SDS011;12395;42.808;23.408;2023-07-31T04:47:44;13.60;;;9.02;;
24279;SDS011;12395;42.808;23.408;2023-07-31T04:50:09;13.82;;;8.60;;
24279;SDS011;12395;42.808;23.408;2023-07-31T04:52:35;15.52;;;9.02;;
24279;SDS011;12395;42.808;23.408;2023-07-31T04:55:00;14.25;;;9.00;;
24279;SDS011;12395;42.808;23.408;2023-07-31T04:57:26;13.88;;;9.10;;
24279;SDS011;12395;42.808;23.408;2023-07-31T04:59:51;14.00;;;9.02;;
24279;SDS011;12395;42.808;23.408;2023-07-31T05:02:17;14.32;;;8.93;;
24279;SDS011;12395;42.808;23.408;2023-07-31T05:04:42;15.23;;;9.65;;
24279;SDS011;12395;42.808;23.408;2023-07-31T05:07:08;15.18;;;9.48;;
24279;SDS011;12395;42.808;23.408;2023-07-31T05:09:33;15.95;;;10.00;;
24279;SDS011;12395;42.808;23.408;2023-07-31T05:11:59;15.63;;;9.70;;
24279;SDS011;12395;42.808;23.408;2023-07-31T05:14:25;17.83;;;10.60;;
24279;SDS011;12395;42.808;23.408;2023-07-31T05:16:51;16.20;;;10.17;;
24279;SDS011;12395;42.808;23.408;2023-07-31T05:19:17;17.02;;;10.48;;
24279;SDS011;12395;42.808;23.408;2023-07-31T05:21:42;18.92;;;11.48;;
24279;SDS011;12395;42.808;23.408;2023-07-31T05:24:10;20.25;;;12.63;;
24279;SDS011;12395;42.808;23.408;2023-07-31T05:26:35;20.95;;;12.50;;
24279;SDS011;12395;42.808;23.408;2023-07-31T05:29:02;21.23;;;12.60;;
24279;SDS011;12395;42.808;23.408;2023-07-31T05:31:28;19.63;;;12.73;;
24279;SDS011;12395;42.808;23.408;2023-07-31T05:33:54;20.15;;;12.77;;
24279;SDS011;12395;42.808;23.408;2023-07-31T05:36:19;20.83;;;12.80;;
24279;SDS011;12395;42.808;23.408;2023-07-31T05:38:44;20.52;;;12.57;;
24279;SDS011;12395;42.808;23.408;2023-07-31T05:41:13;20.90;;;13.02;;
24279;SDS011;12395;42.808;23.408;2023-07-31T05:43:38;21.67;;;13.60;;
24279;SDS011;12395;42.808;23.408;2023-07-31T05:46:04;20.67;;;13.02;;
24279;SDS011;12395;42.808;23.408;2023-07-31T05:48:29;20.08;;;12.40;;
24279;SDS011;12395;42.808;23.408;2023-07-31T05:50:55;20.80;;;13.13;;
24279;SDS011;12395;42.808;23.408;2023-07-31T05:53:20;23.27;;;13.55;;
24279;SDS011;12395;42.808;23.408;2023-07-31T05:55:46;21.00;;;12.52;;
24279;SDS011;12395;42.808;23.408;2023-07-31T05:58:11;19.60;;;12.40;;
24279;SDS011;12395;42.808;23.408;2023-07-31T06:00:36;19.30;;;12.05;;
24279;SDS011;12395;42.808;23.408;2023-07-31T06:03:02;19.92;;;12.82;;
24279;SDS011;12395;42.808;23.408;2023-07-31T06:05:27;21.42;;;12.75;;
24279;SDS011;12395;42.808;23.408;2023-07-31T06:07:55;19.17;;;12.38;;
24279;SDS011;12395;42.808;23.408;2023-07-31T06:10:20;17.15;;;11.63;;
24279;SDS011;12395;42.808;23.408;2023-07-31T06:12:48;17.65;;;12.07;;
24279;SDS011;12395;42.808;23.408;2023-07-31T06:15:14;18.10;;;11.45;;
24279;SDS011;12395;42.808;23.408;2023-07-31T06:17:39;17.70;;;10.80;;
24279;SDS011;12395;42.808;23.408;2023-07-31T06:20:06;17.52;;;11.13;;
24279;SDS011;12395;42.808;23.408;2023-07-31T06:22:32;15.60;;;10.43;;
24279;SDS011;12395;42.808;23.408;2023-07-31T06:24:58;17.25;;;10.65;;
24279;SDS011;12395;42.808;23.408;2023-07-31T06:27:23;17.20;;;10.88;;
24279;SDS011;12395;42.808;23.408;2023-07-31T06:29:49;15.85;;;10.88;;
24279;SDS011;12395;42.808;23.408;2023-07-31T06:32:14;15.25;;;10.20;;
24279;SDS011;12395;42.808;23.408;2023-07-31T06:34:39;13.38;;;8.75;;
24279;SDS011;12395;42.808;23.408;2023-07-31T06:37:05;14.98;;;8.60;;
24279;SDS011;12395;42.808;23.408;2023-07-31T06:39:31;12.85;;;8.80;;
24279;SDS011;12395;42.808;23.408;2023-07-31T06:41:56;13.93;;;8.60;;
24279;SDS011;12395;42.808;23.408;2023-07-31T06:44:21;12.70;;;8.68;;
24279;SDS011;12395;42.808;23.408;2023-07-31T06:46:47;11.27;;;7.68;;
24279;SDS011;12395;42.808;23.408;2023-07-31T06:49:12;12.15;;;7.80;;
24279;SDS011;12395;42.808;23.408;2023-07-31T06:51:40;13.43;;;7.85;;
24279;SDS011;12395;42.808;23.408;2023-07-31T06:54:05;11.85;;;7.55;;
24279;SDS011;12395;42.808;23.408;2023-07-31T06:56:31;11.02;;;7.70;;
24279;SDS011;12395;42.808;23.408;2023-07-31T06:58:56;11.40;;;7.70;;
24279;SDS011;12395;42.808;23.408;2023-07-31T07:01:21;12.07;;;7.72;;
24279;SDS011;12395;42.808;23.408;2023-07-31T07:03:47;15.60;;;7.80;;
24279;SDS011;12395;42.808;23.408;2023-07-31T07:06:15;12.52;;;8.68;;
24279;SDS011;12395;42.808;23.408;2023-07-31T07:08:41;12.90;;;7.43;;
24279;SDS011;12395;42.808;23.408;2023-07-31T07:11:07;12.65;;;7.95;;
24279;SDS011;12395;42.808;23.408;2023-07-31T07:13:32;12.55;;;8.25;;
24279;SDS011;12395;42.808;23.408;2023-07-31T07:15:57;12.25;;;8.30;;
24279;SDS011;12395;42.808;23.408;2023-07-31T07:18:23;11.55;;;7.00;;
24279;SDS011;12395;42.808;23.408;2023-07-31T07:20:49;10.43;;;7.07;;
24279;SDS011;12395;42.808;23.408;2023-07-31T07:23:16;13.23;;;8.35;;
24279;SDS011;12395;42.808;23.408;2023-07-31T07:25:42;12.65;;;7.68;;
24279;SDS011;12395;42.808;23.408;2023-07-31T07:28:08;10.73;;;7.72;;
24279;SDS011;12395;42.808;23.408;2023-07-31T07:30:34;11.60;;;7.07;;
24279;SDS011;12395;42.808;23.408;2023-07-31T07:32:59;11.48;;;7.80;;
24279;SDS011;12395;42.808;23.408;2023-07-31T07:35:25;11.60;;;7.47;;
24279;SDS011;12395;42.808;23.408;2023-07-31T07:37:50;9.48;;;6.10;;
24279;SDS011;12395;42.808;23.408;2023-07-31T07:40:16;11.02;;;6.95;;
24279;SDS011;12395;42.808;23.408;2023-07-31T07:42:41;11.35;;;6.97;;
24279;SDS011;12395;42.808;23.408;2023-07-31T07:45:07;9.05;;;6.10;;
24279;SDS011;12395;42.808;23.408;2023-07-31T07:47:33;9.10;;;5.38;;
24279;SDS011;12395;42.808;23.408;2023-07-31T07:49:58;8.30;;;4.95;;
24279;SDS011;12395;42.808;23.408;2023-07-31T07:52:23;9.07;;;5.57;;
24279;SDS011;12395;42.808;23.408;2023-07-31T07:54:49;8.23;;;5.30;;
24279;SDS011;12395;42.808;23.408;2023-07-31T07:57:15;6.72;;;4.82;;
24279;SDS011;12395;42.808;23.408;2023-07-31T07:59:40;8.10;;;5.10;;
24279;SDS011;12395;42.808;23.408;2023-07-31T08:02:07;7.50;;;5.20;;
24279;SDS011;12395;42.808;23.408;2023-07-31T08:04:32;7.07;;;4.85;;
24279;SDS011;12395;42.808;23.408;2023-07-31T08:06:57;7.63;;;4.78;;
24279;SDS011;12395;42.808;23.408;2023-07-31T08:09:23;7.05;;;4.90;;
24279;SDS011;12395;42.808;23.408;2023-07-31T08:11:48;7.63;;;4.80;;
24279;SDS011;12395;42.808;23.408;2023-07-31T08:14:14;7.95;;;4.80;;
24279;SDS011;12395;42.808;23.408;2023-07-31T08:16:39;7.50;;;4.78;;
24279;SDS011;12395;42.808;23.408;2023-07-31T08:19:05;8.25;;;5.10;;
24279;SDS011;12395;42.808;23.408;2023-07-31T08:21:31;7.13;;;4.90;;
24279;SDS011;12395;42.808;23.408;2023-07-31T08:23:56;6.88;;;4.40;;
24279;SDS011;12395;42.808;23.408;2023-07-31T08:26:22;7.50;;;4.82;;
24279;SDS011;12395;42.808;23.408;2023-07-31T08:28:47;7.20;;;4.80;;
24279;SDS011;12395;42.808;23.408;2023-07-31T08:31:13;7.57;;;4.95;;
24279;SDS011;12395;42.808;23.408;2023-07-31T08:33:38;7.90;;;4.80;;
24279;SDS011;12395;42.808;23.408;2023-07-31T08:36:05;6.43;;;4.45;;
24279;SDS011;12395;42.808;23.408;2023-07-31T08:38:31;6.95;;;4.80;;
24279;SDS011;12395;42.808;23.408;2023-07-31T08:40:56;7.65;;;4.40;;
24279;SDS011;12395;42.808;23.408;2023-07-31T08:43:22;6.47;;;4.15;;
24279;SDS011;12395;42.808;23.408;2023-07-31T08:45:50;6.68;;;4.40;;
24279;SDS011;12395;42.808;23.408;2023-07-31T08:48:16;6.57;;;4.28;;
24279;SDS011;12395;42.808;23.408;2023-07-31T08:50:44;5.82;;;4.00;;
24279;SDS011;12395;42.808;23.408;2023-07-31T08:53:10;7.50;;;4.40;;
24279;SDS011;12395;42.808;23.408;2023-07-31T08:55:36;6.53;;;4.35;;
24279;SDS011;12395;42.808;23.408;2023-07-31T09:00:29;5.28;;;3.75;;
24279;SDS011;12395;42.808;23.408;2023-07-31T09:03:01;5.15;;;3.53;;
24279;SDS011;12395;42.808;23.408;2023-07-31T09:05:29;5.15;;;3.50;;
24279;SDS011;12395;42.808;23.408;2023-07-31T09:07:55;5.82;;;3.95;;
24279;SDS011;12395;42.808;23.408;2023-07-31T09:10:22;6.07;;;4.00;;
24279;SDS011;12395;42.808;23.408;2023-07-31T09:12:48;5.97;;;3.88;;
24279;SDS011;12395;42.808;23.408;2023-07-31T09:15:15;5.10;;;3.72;;
24279;SDS011;12395;42.808;23.408;2023-07-31T09:17:41;5.20;;;3.83;;
24279;SDS011;12395;42.808;23.408;2023-07-31T09:20:20;5.72;;;3.20;;
24279;SDS011;12395;42.808;23.408;2023-07-31T09:22:47;4.75;;;3.00;;
24279;SDS011;12395;42.808;23.408;2023-07-31T09:27:54;4.97;;;3.28;;
24279;SDS011;12395;42.808;23.408;2023-07-31T09:30:19;5.88;;;3.20;;
24279;SDS011;12395;42.808;23.408;2023-07-31T09:32:47;4.57;;;3.40;;
24279;SDS011;12395;42.808;23.408;2023-07-31T09:37:57;5.03;;;3.00;;
24279;SDS011;12395;42.808;23.408;2023-07-31T09:40:35;3.75;;;2.63;;
24279;SDS011;12395;42.808;23.408;2023-07-31T09:43:05;4.45;;;2.75;;
24279;SDS011;12395;42.808;23.408;2023-07-31T09:45:39;3.90;;;2.83;;
24279;SDS011;12395;42.808;23.408;2023-07-31T09:50:39;3.60;;;2.42;;
24279;SDS011;12395;42.808;23.408;2023-07-31T09:53:06;4.00;;;2.50;;
24279;SDS011;12395;42.808;23.408;2023-07-31T09:55:33;3.75;;;2.70;;
24279;SDS011;12395;42.808;23.408;2023-07-31T09:57:58;3.97;;;2.88;;
24279;SDS011;12395;42.808;23.408;2023-07-31T10:00:26;3.35;;;2.50;;
24279;SDS011;12395;42.808;23.408;2023-07-31T10:02:53;3.85;;;2.67;;
24279;SDS011;12395;42.808;23.408;2023-07-31T10:05:21;3.90;;;2.80;;
24279;SDS011;12395;42.808;23.408;2023-07-31T10:07:55;4.80;;;2.92;;
24279;SDS011;12395;42.808;23.408;2023-07-31T10:10:22;5.18;;;2.83;;
24279;SDS011;12395;42.808;23.408;2023-07-31T10:12:49;3.80;;;2.45;;
24279;SDS011;12395;42.808;23.408;2023-07-31T10:15:15;4.85;;;2.72;;
24279;SDS011;12395;42.808;23.408;2023-07-31T10:17:41;5.07;;;2.50;;
24279;SDS011;12395;42.808;23.408;2023-07-31T10:20:07;3.40;;;2.30;;
24279;SDS011;12395;42.808;23.408;2023-07-31T10:22:34;2.83;;;2.25;;
24279;SDS011;12395;42.808;23.408;2023-07-31T10:24:59;3.28;;;2.42;;
24279;SDS011;12395;42.808;23.408;2023-07-31T10:27:25;2.92;;;2.22;;
24279;SDS011;12395;42.808;23.408;2023-07-31T10:29:52;3.03;;;2.33;;
24279;SDS011;12395;42.808;23.408;2023-07-31T10:32:19;3.80;;;2.42;;
24279;SDS011;12395;42.808;23.408;2023-07-31T10:34:46;2.90;;;2.30;;
24279;SDS011;12395;42.808;23.408;2023-07-31T10:37:29;3.45;;;2.13;;
24279;SDS011;12395;42.808;23.408;2023-07-31T10:40:09;5.30;;;2.20;;
24279;SDS011;12395;42.808;23.408;2023-07-31T10:42:56;3.00;;;2.20;;
24279;SDS011;12395;42.808;23.408;2023-07-31T10:45:38;2.60;;;2.30;;
24279;SDS011;12395;42.808;23.408;2023-07-31T10:48:07;2.80;;;2.15;;
24279;SDS011;12395;42.808;23.408;2023-07-31T10:50:38;3.67;;;2.20;;
24279;SDS011;12395;42.808;23.408;2023-07-31T10:53:21;2.53;;;2.17;;
24279;SDS011;12395;42.808;23.408;2023-07-31T10:55:51;2.92;;;2.10;;
24279;SDS011;12395;42.808;23.408;2023-07-31T10:58:18;2.67;;;2.10;;
24279;SDS011;12395;42.808;23.408;2023-07-31T11:00:46;2.25;;;1.83;;
24279;SDS011;12395;42.808;23.408;2023-07-31T11:03:18;2.50;;;1.85;;
24279;SDS011;12395;42.808;23.408;2023-07-31T11:05:51;3.22;;;2.17;;
24279;SDS011;12395;42.808;23.408;2023-07-31T11:13:30;2.70;;;2.00;;
24279;SDS011;12395;42.808;23.408;2023-07-31T11:15:56;2.78;;;1.90;;
24279;SDS011;12395;42.808;23.408;2023-07-31T11:18:21;3.38;;;2.05;;
24279;SDS011;12395;42.808;23.408;2023-07-31T11:20:47;3.35;;;2.20;;
24279;SDS011;12395;42.808;23.408;2023-07-31T11:23:12;2.72;;;2.10;;
24279;SDS011;12395;42.808;23.408;2023-07-31T11:25:41;2.88;;;2.05;;
24279;SDS011;12395;42.808;23.408;2023-07-31T11:28:14;2.72;;;2.00;;
24279;SDS011;12395;42.808;23.408;2023-07-31T11:30:41;2.67;;;2.05;;
24279;SDS011;12395;42.808;23.408;2023-07-31T11:33:08;3.05;;;1.90;;
24279;SDS011;12395;42.808;23.408;2023-07-31T11:35:40;2.92;;;2.00;;
24279;SDS011;12395;42.808;23.408;2023-07-31T11:38:07;3.67;;;2.10;;
24279;SDS011;12395;42.808;23.408;2023-07-31T11:40:40;2.00;;;1.80;;
24279;SDS011;12395;42.808;23.408;2023-07-31T11:43:10;2.92;;;2.00;;
24279;SDS011;12395;42.808;23.408;2023-07-31T11:45:42;2.78;;;2.00;;
24279;SDS011;12395;42.808;23.408;2023-07-31T11:48:17;3.25;;;2.08;;
24279;SDS011;12395;42.808;23.408;2023-07-31T11:50:48;2.42;;;2.00;;
24279;SDS011;12395;42.808;23.408;2023-07-31T11:53:15;2.17;;;1.90;;
24279;SDS011;12395;42.808;23.408;2023-07-31T11:55:44;3.03;;;1.90;;
24279;SDS011;12395;42.808;23.408;2023-07-31T11:58:10;2.30;;;2.10;;
24279;SDS011;12395;42.808;23.408;2023-07-31T12:00:36;2.43;;;2.07;;
24279;SDS011;12395;42.808;23.408;2023-07-31T12:03:02;2.83;;;2.10;;
24279;SDS011;12395;42.808;23.408;2023-07-31T12:05:27;3.05;;;2.08;;
24279;SDS011;12395;42.808;23.408;2023-07-31T12:07:54;2.60;;;2.00;;
24279;SDS011;12395;42.808;23.408;2023-07-31T12:10:27;2.50;;;1.92;;
24279;SDS011;12395;42.808;23.408;2023-07-31T12:13:00;2.15;;;1.77;;
24279;SDS011;12395;42.808;23.408;2023-07-31T12:15:38;2.63;;;1.85;;
24279;SDS011;12395;42.808;23.408;2023-07-31T12:18:12;3.03;;;1.90;;
24279;SDS011;12395;42.808;23.408;2023-07-31T12:23:19;3.92;;;2.00;;
24279;SDS011;12395;42.808;23.408;2023-07-31T12:26:12;2.67;;;1.88;;
24279;SDS011;12395;42.808;23.408;2023-07-31T12:28:42;2.55;;;1.92;;
24279;SDS011;12395;42.808;23.408;2023-07-31T12:31:29;2.55;;;1.95;;
24279;SDS011;12395;42.808;23.408;2023-07-31T12:33:56;4.47;;;2.45;;
24279;SDS011;12395;42.808;23.408;2023-07-31T12:36:23;2.90;;;2.00;;
24279;SDS011;12395;42.808;23.408;2023-07-31T12:38:49;4.38;;;2.08;;
24279;SDS011;12395;42.808;23.408;2023-07-31T12:41:16;2.45;;;1.90;;
24279;SDS011;12395;42.808;23.408;2023-07-31T12:43:42;2.92;;;1.85;;
24279;SDS011;12395;42.808;23.408;2023-07-31T12:48:34;3.55;;;1.95;;
24279;SDS011;12395;42.808;23.408;2023-07-31T12:51:00;3.15;;;2.20;;
24279;SDS011;12395;42.808;23.408;2023-07-31T12:53:26;2.72;;;2.00;;
24279;SDS011;12395;42.808;23.408;2023-07-31T12:55:52;3.80;;;2.20;;
24279;SDS011;12395;42.808;23.408;2023-07-31T12:58:17;2.60;;;2.20;;
24279;SDS011;12395;42.808;23.408;2023-07-31T13:00:43;3.25;;;2.10;;
24279;SDS011;12395;42.808;23.408;2023-07-31T13:03:10;3.03;;;2.30;;
24279;SDS011;12395;42.808;23.408;2023-07-31T13:05:35;5.05;;;2.63;;
24279;SDS011;12395;42.808;23.408;2023-07-31T13:08:01;4.75;;;2.80;;
24279;SDS011;12395;42.808;23.408;2023-07-31T13:10:27;4.78;;;3.15;;
24279;SDS011;12395;42.808;23.408;2023-07-31T13:12:53;5.78;;;3.40;;
24279;SDS011;12395;42.808;23.408;2023-07-31T13:15:19;5.72;;;3.25;;
24279;SDS011;12395;42.808;23.408;2023-07-31T13:17:45;5.65;;;3.63;;
24279;SDS011;12395;42.808;23.408;2023-07-31T13:20:11;4.93;;;3.38;;
24279;SDS011;12395;42.808;23.408;2023-07-31T13:22:36;5.13;;;3.50;;
24279;SDS011;12395;42.808;23.408;2023-07-31T13:25:02;4.72;;;3.33;;
24279;SDS011;12395;42.808;23.408;2023-07-31T13:27:28;5.35;;;3.20;;
24279;SDS011;12395;42.808;23.408;2023-07-31T13:29:53;4.68;;;3.05;;
24279;SDS011;12395;42.808;23.408;2023-07-31T13:32:19;4.80;;;3.10;;
24279;SDS011;12395;42.808;23.408;2023-07-31T13:34:46;4.85;;;3.30;;
24279;SDS011;12395;42.808;23.408;2023-07-31T13:37:12;4.85;;;3.42;;
24279;SDS011;12395;42.808;23.408;2023-07-31T13:39:38;6.78;;;3.70;;
24279;SDS011;12395;42.808;23.408;2023-07-31T13:42:04;5.28;;;3.60;;
24279;SDS011;12395;42.808;23.408;2023-07-31T13:44:36;5.47;;;3.45;;
24279;SDS011;12395;42.808;23.408;2023-07-31T13:47:05;5.15;;;3.60;;
24279;SDS011;12395;42.808;23.408;2023-07-31T13:49:31;5.93;;;3.40;;
24279;SDS011;12395;42.808;23.408;2023-07-31T13:51:57;4.80;;;3.08;;
24279;SDS011;12395;42.808;23.408;2023-07-31T13:54:23;4.45;;;3.20;;
24279;SDS011;12395;42.808;23.408;2023-07-31T13:56:48;4.07;;;3.05;;
24279;SDS011;12395;42.808;23.408;2023-07-31T13:59:14;6.13;;;3.13;;
24279;SDS011;12395;42.808;23.408;2023-07-31T14:01:41;6.07;;;3.22;;
24279;SDS011;12395;42.808;23.408;2023-07-31T14:04:07;4.82;;;3.00;;
24279;SDS011;12395;42.808;23.408;2023-07-31T14:06:33;5.55;;;3.03;;
24279;SDS011;12395;42.808;23.408;2023-07-31T14:08:58;5.47;;;3.20;;
24279;SDS011;12395;42.808;23.408;2023-07-31T14:11:24;3.38;;;2.83;;
24279;SDS011;12395;42.808;23.408;2023-07-31T14:13:52;4.82;;;3.08;;
24279;SDS011;12395;42.808;23.408;2023-07-31T14:16:18;3.92;;;2.90;;
24279;SDS011;12395;42.808;23.408;2023-07-31T14:18:43;5.25;;;2.95;;
24279;SDS011;12395;42.808;23.408;2023-07-31T14:21:10;4.55;;;3.00;;
24279;SDS011;12395;42.808;23.408;2023-07-31T14:23:36;4.50;;;3.05;;
24279;SDS011;12395;42.808;23.408;2023-07-31T14:26:01;4.30;;;2.80;;
24279;SDS011;12395;42.808;23.408;2023-07-31T14:28:27;3.55;;;2.80;;
24279;SDS011;12395;42.808;23.408;2023-07-31T14:30:52;3.97;;;2.80;;
24279;SDS011;12395;42.808;23.408;2023-07-31T14:33:17;4.30;;;2.50;;
24279;SDS011;12395;42.808;23.408;2023-07-31T14:35:43;3.42;;;2.55;;
24279;SDS011;12395;42.808;23.408;2023-07-31T14:38:08;3.60;;;2.42;;
24279;SDS011;12395;42.808;23.408;2023-07-31T14:40:34;4.68;;;2.25;;
24279;SDS011;12395;42.808;23.408;2023-07-31T14:42:59;2.70;;;1.92;;
24279;SDS011;12395;42.808;23.408;2023-07-31T14:45:24;2.72;;;2.10;;
24279;SDS011;12395;42.808;23.408;2023-07-31T14:47:50;2.63;;;2.00;;
24279;SDS011;12395;42.808;23.408;2023-07-31T14:50:15;2.70;;;1.90;;
24279;SDS011;12395;42.808;23.408;2023-07-31T14:52:41;2.78;;;2.08;;
24279;SDS011;12395;42.808;23.408;2023-07-31T14:55:10;2.55;;;1.88;;
24279;SDS011;12395;42.808;23.408;2023-07-31T14:57:35;2.63;;;1.98;;
24279;SDS011;12395;42.808;23.408;2023-07-31T15:00:04;2.47;;;1.90;;